地図

経路データ

SID SEASON NUMBER BASIN SUBBASIN NAME ISO_TIME NATURE LAT LON WMO_WIND WMO_PRES WMO_AGENCY TRACK_TYPE DIST2LAND LANDFALL IFLAG USA_AGENCY USA_ATCF_ID USA_LAT USA_LON USA_RECORD USA_STATUS USA_WIND USA_PRES USA_SSHS USA_R34_NE USA_R34_SE USA_R34_SW USA_R34_NW USA_R50_NE USA_R50_SE USA_R50_SW USA_R50_NW USA_R64_NE USA_R64_SE USA_R64_SW USA_R64_NW USA_POCI USA_ROCI USA_RMW USA_EYE TOKYO_LAT TOKYO_LON TOKYO_GRADE TOKYO_WIND TOKYO_PRES TOKYO_R50_DIR TOKYO_R50_LONG TOKYO_R50_SHORT TOKYO_R30_DIR TOKYO_R30_LONG TOKYO_R30_SHORT TOKYO_LAND CMA_LAT CMA_LON CMA_CAT CMA_WIND CMA_PRES HKO_LAT HKO_LON HKO_CAT HKO_WIND HKO_PRES NEWDELHI_LAT NEWDELHI_LON NEWDELHI_GRADE NEWDELHI_WIND NEWDELHI_PRES NEWDELHI_CI NEWDELHI_DP NEWDELHI_POCI REUNION_LAT REUNION_LON REUNION_TYPE REUNION_WIND REUNION_PRES REUNION_TNUM REUNION_CI REUNION_RMW REUNION_R34_NE REUNION_R34_SE REUNION_R34_SW REUNION_R34_NW REUNION_R50_NE REUNION_R50_SE REUNION_R50_SW REUNION_R50_NW REUNION_R64_NE REUNION_R64_SE REUNION_R64_SW REUNION_R64_NW BOM_LAT BOM_LON BOM_TYPE BOM_WIND BOM_PRES BOM_TNUM BOM_CI BOM_RMW BOM_R34_NE BOM_R34_SE BOM_R34_SW BOM_R34_NW BOM_R50_NE BOM_R50_SE BOM_R50_SW BOM_R50_NW BOM_R64_NE BOM_R64_SE BOM_R64_SW BOM_R64_NW BOM_ROCI BOM_POCI BOM_EYE BOM_POS_METHOD BOM_PRES_METHOD NADI_LAT NADI_LON NADI_CAT NADI_WIND NADI_PRES WELLINGTON_LAT WELLINGTON_LON WELLINGTON_WIND WELLINGTON_PRES DS824_LAT DS824_LON DS824_STAGE DS824_WIND DS824_PRES TD9636_LAT TD9636_LON TD9636_STAGE TD9636_WIND TD9636_PRES TD9635_LAT TD9635_LON TD9635_WIND TD9635_PRES TD9635_ROCI NEUMANN_LAT NEUMANN_LON NEUMANN_CLASS NEUMANN_WIND NEUMANN_PRES MLC_LAT MLC_LON MLC_CLASS MLC_WIND MLC_PRES USA_GUST BOM_GUST BOM_GUST_PER REUNION_GUST REUNION_GUST_PER USA_SEAHGT USA_SEARAD_NE USA_SEARAD_SE USA_SEARAD_SW USA_SEARAD_NW STORM_SPEED STORM_DIR
1994344S09112 1995 113 SI WA ANNETTE 1994-12-10 00:00:00 TS -9.00000 112.000 main 74 74 O___________O_ jtwc_sh SH031995 -9.00000 112.000 15 -1 -9.00000 112.000 TC 15 3 108
1994344S09112 1995 113 SI WA ANNETTE 1994-12-10 03:00:00 TS -9.05001 112.150 main 89 89 P___________P_ SH031995 -9.05001 112.150 15 -1 -9.05001 112.150 TC 15 3 109
1994344S09112 1995 113 SI WA ANNETTE 1994-12-10 06:00:00 TS -9.10000 112.300 main 89 85 O___________O_ jtwc_sh SH031995 -9.10000 112.300 15 -1 -9.10000 112.300 TC 15 3 109
1994344S09112 1995 113 SI WA ANNETTE 1994-12-10 09:00:00 TS -9.14999 112.450 main 81 81 P___________P_ SH031995 -9.14999 112.450 15 -1 -9.14999 112.450 TC 15 3 109
1994344S09112 1995 113 SI WA ANNETTE 1994-12-10 12:00:00 TS -9.20000 112.600 main 90 89 O___________O_ jtwc_sh SH031995 -9.20000 112.600 15 -1 -9.20000 112.600 TC 15 3 109
1994344S09112 1995 113 SI WA ANNETTE 1994-12-10 15:00:00 TS -9.24999 112.750 main 90 90 P___________P_ SH031995 -9.24999 112.750 15 -1 -9.24999 112.750 TC 15 3 109
1994344S09112 1995 113 SI WA ANNETTE 1994-12-10 18:00:00 TS -9.30000 112.900 main 103 103 O___________O_ jtwc_sh SH031995 -9.30000 112.900 15 -1 -9.30000 112.900 TC 15 3 107
1994344S09112 1995 113 SI WA ANNETTE 1994-12-10 21:00:00 TS -9.34249 113.050 main 106 106 P___________P_ SH031995 -9.34249 113.050 15 -1 -9.34249 113.050 TC 15 3 109
1994344S09112 1995 113 SI WA ANNETTE 1994-12-11 00:00:00 TS -9.40000 113.200 main 111 105 O___________O_ jtwc_sh SH031995 -9.40000 113.200 15 -1 -9.40000 113.200 TC 15 3 116
1994344S09112 1995 113 SI WA ANNETTE 1994-12-11 03:00:00 TS -9.49250 113.357 main 109 109 P___________P_ SH031995 -9.49250 113.357 15 -1 -9.49250 113.357 TC 15 4 124
1994344S09112 1995 113 SI WA ANNETTE 1994-12-11 06:00:00 TS -9.60000 113.500 main 116 114 O___________O_ jtwc_sh SH031995 -9.60000 113.500 15 -1 -9.60000 113.500 TC 15 3 130
1994344S09112 1995 113 SI WA ANNETTE 1994-12-11 09:00:00 TS -9.69999 113.608 main 125 123 P___________P_ SH031995 -9.69999 113.608 17 -1 -9.69999 113.608 TC 17 3 135
1994344S09112 1995 113 SI WA ANNETTE 1994-12-11 12:00:00 TS -9.80000 113.700 main 134 134 O___________O_ jtwc_sh SH031995 -9.80000 113.700 20 -1 -9.80000 113.700 TC 20 3 136
1994344S09112 1995 113 SI WA ANNETTE 1994-12-11 15:00:00 TS -9.90000 113.800 main 145 145 P___________P_ SH031995 -9.90000 113.800 20 -1 -9.90000 113.800 TC 20 3 135
1994344S09112 1995 113 SI WA ANNETTE 1994-12-11 18:00:00 TS -10.0000 113.900 main 154 149 O___________O_ jtwc_sh SH031995 -10.0000 113.900 20 -1 -10.0000 113.900 TC 20 3 135
1994344S09112 1995 113 SI WA ANNETTE 1994-12-11 21:00:00 TS -10.1000 114.000 main 159 155 P___________P_ SH031995 -10.1000 114.000 20 -1 -10.1000 114.000 TC 20 3 135
1994344S09112 1995 113 SI WA ANNETTE 1994-12-12 00:00:00 TS -10.2000 114.100 main 166 162 O___________O_ jtwc_sh SH031995 -10.2000 114.100 20 -1 -10.2000 114.100 TC 20 3 135
1994344S09112 1995 113 SI WA ANNETTE 1994-12-12 03:00:00 TS -10.3000 114.200 main 173 173 P___________P_ SH031995 -10.3000 114.200 20 -1 -10.3000 114.200 TC 20 3 135
1994344S09112 1995 113 SI WA ANNETTE 1994-12-12 06:00:00 TS -10.4000 114.300 main 182 182 O___________O_ jtwc_sh SH031995 -10.4000 114.300 20 -1 -10.4000 114.300 TC 20 3 134
1994344S09112 1995 113 SI WA ANNETTE 1994-12-12 09:00:00 TS -10.5000 114.408 main 191 190 P___________P_ SH031995 -10.5000 114.408 22 -1 -10.5000 114.408 TC 22 3 135
1994344S09112 1995 113 SI WA ANNETTE 1994-12-12 12:00:00 TS -10.6000 114.500 main 201 201 O___________O_ jtwc_sh SH031995 -10.6000 114.500 25 -1 -10.6000 114.500 TC 25 2 143
1994344S09112 1995 113 SI WA ANNETTE 1994-12-12 15:00:00 TS -10.7000 114.558 main 212 212 P___________P_ SH031995 -10.7000 114.558 25 -1 -10.7000 114.558 TC 25 2 153
1994344S09112 1995 113 SI WA ANNETTE 1994-12-12 18:00:00 TS -10.8000 114.600 main 224 224 O___________O_ jtwc_sh SH031995 -10.8000 114.600 25 -1 -10.8000 114.600 TC 25 2 155
1994344S09112 1995 113 SI WA ANNETTE 1994-12-12 21:00:00 TS -10.9000 114.650 main 235 235 P___________P_ SH031995 -10.9000 114.650 25 -1 -10.9000 114.650 TC 25 4 147
1994344S09112 1995 113 SI WA ANNETTE 1994-12-13 00:00:00 TS -11.1667 114.844 20 1006 bom main 269 269 O_____O_____O_ jtwc_sh SH031995 -11.0000 114.700 25 -1 -12.5000 116.000 20 20 1006 1.00000 107 3 5 -11.0000 114.700 TC 25 6 145
1994344S09112 1995 113 SI WA ANNETTE 1994-12-13 03:00:00 TS -11.3800 115.000 main 291 291 P_____P_____P_ SH031995 -11.1000 114.750 25 -1 -12.5000 116.000 20 20 1006 107 -11.1000 114.750 TC 25 5 145
1994344S09112 1995 113 SI WA ANNETTE 1994-12-13 06:00:00 TS -11.5545 115.127 20 1006 bom main 313 313 O_____O_____O_ jtwc_sh SH031995 -11.2000 114.800 25 -1 -12.5000 116.000 20 20 1006 1.00000 107 3 5 -11.2000 114.800 TC 25 4 145
1994344S09112 1995 113 SI WA ANNETTE 1994-12-13 09:00:00 TS -11.7000 115.233 20 1004 bom main 324 322 P_____O_____P_ SH031995 -11.3000 114.850 27 -1 -12.5000 116.000 20 20 1004 1.50000 107 3 5 -11.3000 114.850 TC 27 3 147
1994344S09112 1995 113 SI WA ANNETTE 1994-12-13 12:00:00 TS -11.7667 115.267 20 1004 bom main 333 333 O_____O_____O_ jtwc_sh SH031995 -11.4000 114.900 30 -1 -12.5000 116.000 20 20 1004 1.50000 107 3 5 -11.4000 114.900 TC 30 1 154
1994344S09112 1995 113 SI WA ANNETTE 1994-12-13 15:00:00 TS -11.8333 115.300 20 1004 bom main 333 333 P_____O_____P_ SH031995 -11.5000 114.950 30 -1 -12.5000 116.000 20 20 1004 1.50000 107 3 5 -11.5000 114.950 TC 30 1 154
1994344S09112 1995 113 SI WA ANNETTE 1994-12-13 18:00:00 TS -11.9000 115.333 20 1004 bom main 344 342 O_____O_____O_ jtwc_sh SH031995 -11.6000 115.000 30 -1 -12.5000 116.000 20 20 1004 1.50000 107 3 5 -11.6000 115.000 TC 30 1 154
1994344S09112 1995 113 SI WA ANNETTE 1994-12-13 21:00:00 TS -11.9667 115.367 20 1004 bom main 353 353 P_____O_____P_ SH031995 -11.7000 115.050 30 -1 -12.5000 116.000 20 20 1004 1.50000 107 3 5 -11.7000 115.050 TC 30 1 154
1994344S09112 1995 113 SI WA ANNETTE 1994-12-14 00:00:00 TS -12.0333 115.400 25 1002 bom main 353 353 O_____O_____O_ jtwc_sh SH031995 -11.8000 115.100 30 -1 -12.5000 116.000 20 25 1002 1.50000 161 3 5 -11.8000 115.100 TC 30 1 0
1994344S09112 1995 113 SI WA ANNETTE 1994-12-14 03:00:00 TS -12.1000 115.372 25 1000 bom main 364 364 P_____O_____P_ SH031995 -11.9000 115.158 32 -1 -12.5000 115.800 20 25 1000 2.00000 161 3 5 -11.9000 115.158 TC 32 1 193
1994344S09112 1995 113 SI WA ANNETTE 1994-12-14 06:00:00 TS -12.1667 115.367 25 1000 bom main 374 374 O_____O_____O_ jtwc_sh SH031995 -12.0000 115.200 35 0 -12.5000 115.700 20 25 1000 2.00000 161 3 5 -12.0000 115.200 TC 35 1 193
1994344S09112 1995 113 SI WA ANNETTE 1994-12-14 09:00:00 TS -12.2333 115.333 30 998 bom main 377 377 P_____O_____P_ SH031995 -12.1000 115.200 35 0 -12.5000 115.600 20 30 998 2.50000 188 3 5 -12.1000 115.200 TC 35 1 193
1994344S09112 1995 113 SI WA ANNETTE 1994-12-14 12:00:00 TS -12.3000 115.333 30 998 bom main 388 385 O_____O_____O_ jtwc_sh SH031995 -12.2000 115.200 35 0 -12.5000 115.600 20 30 998 2.50000 188 3 5 -12.2000 115.200 TC 35 1 166
1994344S09112 1995 113 SI WA ANNETTE 1994-12-14 15:00:00 TS -12.3717 115.367 30 996 bom main 396 396 P_____O_____P_ SH031995 -12.3075 115.250 35 0 -12.5000 115.600 20 30 996 2.50000 188 3 5 -12.3075 115.250 TC 35 1 154
1994344S09112 1995 113 SI WA ANNETTE 1994-12-14 18:00:00 TS -12.4333 115.400 35 994 bom main 396 396 O_____O_____O_ jtwc_sh SH031995 -12.4000 115.300 35 0 -12.5000 115.600 30 35 994 3.00000 215 3 5 -12.4000 115.300 TC 35 49 49 1 163
1994344S09112 1995 113 SI WA ANNETTE 1994-12-14 21:00:00 TS -12.4717 115.400 40 990 bom main 406 406 P_____O_____P_ SH031995 -12.4575 115.300 37 0 -12.5000 115.600 30 40 990 3.00000 215 3 5 -12.4575 115.300 TC 37 55 55 1 167
1994344S09112 1995 113 SI WA ANNETTE 1994-12-15 00:00:00 TS -12.5000 115.400 50 985 bom main 406 406 O_____O_____O_ jtwc_sh SH031995 -12.5000 115.300 40 0 -12.5000 115.600 30 50 985 3.50000 215 3 5 -12.5000 115.300 TC 40 69 69 1 146
1994344S09112 1995 113 SI WA ANNETTE 1994-12-15 03:00:00 TS -12.5283 115.433 55 980 bom main 406 406 P_____O_____P_ SH031995 -12.5425 115.350 42 0 -12.5000 115.600 30 55 980 3.50000 215 3 5 -12.5425 115.350 TC 42 75 75 1 147
1994344S09112 1995 113 SI WA ANNETTE 1994-12-15 06:00:00 TS -12.6000 115.467 60 975 bom main 415 415 O_____O_____O_ jtwc_sh SH031995 -12.6000 115.400 45 0 -12.6000 115.600 30 60 975 4.00000 215 3 5 -12.6000 115.400 TC 45 84 84 2 165
1994344S09112 1995 113 SI WA ANNETTE 1994-12-15 09:00:00 TS -12.6950 115.467 60 975 bom main 425 425 P_____O_____P_ SH031995 -12.6925 115.400 50 0 -12.7000 115.600 30 60 975 4.00000 215 3 5 -12.6925 115.400 TC 50 84 84 2 172
1994344S09112 1995 113 SI WA ANNETTE 1994-12-15 12:00:00 TS -12.8000 115.467 60 975 bom main 436 436 O_____O_____O_ jtwc_sh SH031995 -12.8000 115.400 55 0 -12.8000 115.600 30 60 975 4.00000 215 3 5 -12.8000 115.400 TC 55 84 84 2 172
1994344S09112 1995 113 SI WA ANNETTE 1994-12-15 15:00:00 TS -12.8950 115.490 65 970 bom main 447 447 P_____O_____P_ SH031995 -12.8925 115.435 60 0 -12.9000 115.600 40 65 970 4.50000 215 3 5 -12.8925 115.435 TC 60 89 89 2 160
1994344S09112 1995 113 SI WA ANNETTE 1994-12-15 18:00:00 TS -13.0000 115.533 70 965 bom main 458 456 O_____O_____O_ jtwc_sh SH031995 -13.0000 115.500 65 1 -13.0000 115.600 40 70 965 4.50000 215 3 5 -13.0000 115.500 TC 65 99 99 3 156
1994344S09112 1995 113 SI WA ANNETTE 1994-12-15 21:00:00 TS -13.1283 115.595 80 960 bom main 467 467 P_____O_____P_ SH031995 -13.1425 115.592 67 1 -13.1000 115.600 40 80 960 5.00000 215 3 5 -13.1425 115.592 TC 67 110 110 3 149
1994344S09112 1995 113 SI WA ANNETTE 1994-12-16 00:00:00 TS -13.2667 115.700 80 955 bom main 487 486 O_____O_____O_ jtwc_sh SH031995 -13.3000 115.700 70 1 -13.2000 115.700 40 80 955 5.00000 215 9 4 5 -13.3000 115.700 TC 70 110 110 3 144
1994344S09112 1995 113 SI WA ANNETTE 1994-12-16 03:00:00 TS -13.3950 115.795 85 950 bom main 497 497 P_____O_____P_ SH031995 -13.4425 115.793 72 1 -13.3000 115.800 40 85 950 5.00000 215 9 4 5 -13.4425 115.793 TC 72 119 119 4 147
1994344S09112 1995 113 SI WA ANNETTE 1994-12-16 06:00:00 TS -13.5667 115.900 90 945 bom main 518 518 O_____O_____O_ jtwc_sh SH031995 -13.6000 115.900 75 1 -13.5000 115.900 40 90 945 5.50000 215 7 4 5 -13.6000 115.900 TC 75 124 124 4 149
1994344S09112 1995 113 SI WA ANNETTE 1994-12-16 09:00:00 TS -13.7617 116.023 90 940 bom main 537 535 P_____O_____P_ SH031995 -13.7925 116.035 77 1 -13.7000 116.000 40 90 940 5.50000 215 5 4 5 -13.7925 116.035 TC 77 124 124 5 146
1994344S09112 1995 113 SI WA ANNETTE 1994-12-16 12:00:00 TS -14.0000 116.200 90 940 bom main 555 555 O_____O_____O_ jtwc_sh SH031995 -14.0000 116.200 80 1 -14.0000 116.200 40 90 940 5.50000 215 3 4 5 -14.0000 116.200 TC 80 124 124 6 141
1994344S09112 1995 113 SI WA ANNETTE 1994-12-16 15:00:00 TS -14.1950 116.390 90 945 bom main 574 573 P_____O_____P_ SH031995 -14.1925 116.385 82 1 -14.2000 116.400 40 90 945 5.50000 215 3 4 5 -14.1925 116.385 TC 82 124 124 6 134
1994344S09112 1995 113 SI WA ANNETTE 1994-12-16 18:00:00 TS -14.4000 116.633 85 950 bom main 592 587 O_____O_____O_ jtwc_sh SH031995 -14.4000 116.600 85 2 -14.4000 116.700 40 85 950 5.50000 215 3 5 -14.4000 116.600 TC 85 119 119 7 135
1994344S09112 1995 113 SI WA ANNETTE 1994-12-16 21:00:00 TS -14.6616 116.880 80 955 bom main 608 598 P_____O_____P_ SH031995 -14.6424 116.820 85 2 -14.7000 117.000 40 80 955 5.00000 215 3 4 5 -14.6424 116.820 TC 85 110 110 8 134
1994344S09112 1995 113 SI WA ANNETTE 1994-12-17 00:00:00 TS -14.9333 117.200 80 955 bom main 598 544 O_____O_____O_ jtwc_sh SH031995 -14.9000 117.100 85 2 -15.0000 117.400 40 80 955 5.00000 242 3 4 5 -14.9000 117.100 TC 85 110 110 9 129
1994344S09112 1995 113 SI WA ANNETTE 1994-12-17 03:00:00 TS -15.2184 117.590 80 955 bom main 544 501 P_____O_____P_ SH031995 -15.1276 117.485 87 2 -15.4000 117.800 40 80 955 5.00000 242 3 4 5 -15.1276 117.485 TC 87 110 110 9 127
1994344S09112 1995 113 SI WA ANNETTE 1994-12-17 06:00:00 TS -15.5000 117.967 80 955 bom main 491 448 O_____O_____O_ jtwc_sh SH031995 -15.4000 117.900 90 2 -15.7000 118.100 40 80 955 5.00000 242 3 5 -15.4000 117.900 TC 90 110 110 9 133
1994344S09112 1995 113 SI WA ANNETTE 1994-12-17 09:00:00 TS -15.8466 118.300 80 955 bom main 448 402 P_____O_____P_ SH031995 -15.7699 118.250 90 2 -16.0000 118.400 40 80 955 5.00000 242 3 5 -15.7699 118.250 TC 90 110 110 10 139
1994344S09112 1995 113 SI WA ANNETTE 1994-12-17 12:00:00 TS -16.2333 118.633 80 955 bom main 402 348 O_____O_____O_ jtwc_sh SH031995 -16.2000 118.600 90 2 -16.3000 118.700 40 80 955 5.00000 242 3 5 -16.2000 118.600 TC 90 110 110 10 138
1994344S09112 1995 113 SI WA ANNETTE 1994-12-17 15:00:00 TS -16.6183 119.028 85 950 bom main 348 294 P_____O_____P_ SH031995 -16.6275 118.993 95 2 -16.6000 119.100 40 85 950 5.00000 242 3 5 -16.6275 118.993 TC 95 119 119 12 136
1994344S09112 1995 113 SI WA ANNETTE 1994-12-17 18:00:00 TS -17.0667 119.467 90 940 bom main 281 229 O_____O_____O_ jtwc_sh SH031995 -17.1000 119.400 100 3 -17.0000 119.600 40 90 940 5.50000 242 5 4 5 -17.1000 119.400 TC 100 124 124 12 141
1994344S09112 1995 113 SI WA ANNETTE 1994-12-17 21:00:00 TS -17.5850 119.843 95 930 bom main 229 167 P_____O_____P_ SH031995 -17.6275 119.815 105 3 -17.5000 119.900 40 95 930 5.50000 242 9 6 5 -17.6275 119.815 TC 105 135 135 13 148
1994344S09112 1995 113 SI WA ANNETTE 1994-12-18 00:00:00 TS -18.1667 120.200 100 925 bom main 164 113 O_____O_____O_ jtwc_sh SH031995 -18.2000 120.200 110 3 -18.1000 120.200 40 100 925 6.00000 242 11 6 5 -18.2000 120.200 TC 110 139 139 13 153
1994344S09112 1995 113 SI WA ANNETTE 1994-12-18 03:00:00 TS -18.7282 120.462 100 930 bom main 107 39 P_____O_____P_ SH031995 -18.7922 120.493 110 3 -18.6000 120.400 40 100 930 6.00000 242 11 6 5 -18.7922 120.493 TC 110 139 139 13 157
1994344S09112 1995 113 SI WA ANNETTE 1994-12-18 06:00:00 TS -19.3333 120.733 100 930 bom main 39 0 O_____O_____O_ jtwc_sh SH031995 -19.4000 120.800 110 3 -19.2000 120.600 40 100 930 6.00000 242 9 6 5 -19.4000 120.800 TC 110 139 139 14 152
1994344S09112 1995 113 SI WA ANNETTE 1994-12-18 09:00:00 TS -19.9184 121.123 100 935 bom main 0 0 P_____O_____P_ SH031995 -19.9776 121.235 90 2 -19.8000 120.900 40 100 935 6.00000 242 7 6 3 -19.9776 121.235 TC 92 139 139 14 147
1994344S09112 1995 113 SI WA ANNETTE 1994-12-18 12:00:00 TS -20.5333 121.567 80 955 bom main 0 0 O_____O_____O_ jtwc_sh SH031995 -20.6000 121.700 70 1 -20.4000 121.300 40 80 955 242 3 5 -20.6000 121.700 TC 75 110 110 16 149
1994344S09112 1995 113 SI WA ANNETTE 1994-12-18 15:00:00 TS -21.2749 122.000 60 975 bom main 0 0 P_____O_____P_ SH031995 -21.3123 122.101 57 0 -21.2000 121.800 30 60 975 215 3 5 -21.3123 122.101 TC 65 84 84 17 153
1994344S09112 1995 113 SI WA ANNETTE 1994-12-18 18:00:00 TS -22.0333 122.400 40 990 bom main 0 0 O_____O_____O_ jtwc_sh SH031995 -22.1000 122.500 45 0 -21.9000 122.200 30 40 990 215 3 5 -22.1000 122.500 TC 55 55 55 18 154
1994344S09112 1995 113 SI WA ANNETTE 1994-12-18 21:00:00 TS -22.8466 122.824 35 995 bom main 0 0 P_____O_____P_ SH031995 -22.9199 122.936 40 0 -22.7000 122.600 30 35 995 188 3 5 -22.9199 122.936 TC 50 49 49 18 153
1994344S09112 1995 113 SI WA ANNETTE 1994-12-19 00:00:00 TS -23.6333 123.267 35 995 bom main 0 0 O_____O_____O_ jtwc_sh SH031995 -23.8000 123.400 35 0 -23.3000 123.000 21 35 995 26 26 188 3 5 -23.8000 123.400 TC 45 49 49 19 154
1994344S09112 1995 113 SI WA ANNETTE 1994-12-19 03:00:00 TS -24.5166 123.712 main 0 0 P_____P_____P_ SH031995 -24.7348 123.878 32 -1 -24.0804 123.379 21 35 995 26 26 174 -24.7348 123.878 TC 40 20 154
1994344S09112 1995 113 SI WA ANNETTE 1994-12-19 06:00:00 TS -25.4000 124.200 35 995 bom main 0 0 O_____O_____O_ jtwc_sh SH031995 -25.7000 124.400 30 -1 -24.8000 123.800 21 35 995 26 26 161 3 5 -25.7000 124.400 TC 35 49 49 18 150
1994344S09112 1995 113 SI WA ANNETTE 1994-12-19 09:00:00 TS -26.0854 124.734 main 0 0 P_____P_____P_ SH031995 -26.6496 124.964 27 -1 -24.9569 124.273 21 35 995 26 26 161 -26.6496 124.964 TC 32 18 144
1994344S09112 1995 113 SI WA ANNETTE 1994-12-19 12:00:00 TS -26.8667 125.367 35 995 bom main 0 0 O_____O_____O_ jtwc_sh SH031995 -27.6000 125.600 25 -1 -25.4000 124.900 21 35 995 26 26 161 3 5 -27.6000 125.600 TC 30 49 49 23 148
1994344S09112 1995 113 SI WA ANNETTE 1994-12-19 15:00:00 TS -28.0236 126.111 main 0 0 P_____P_____P_ SH031995 -28.5567 126.292 22 -1 -26.9574 125.749 21 35 995 26 26 147 -28.5567 126.292 TC 30 28 149
1994344S09112 1995 113 SI WA ANNETTE 1994-12-19 18:00:00 TS -29.2200 126.980 35 995 bom main 0 0 O_____O_____O_ jtwc_sh SH031995 -29.5000 127.100 20 -1 -28.8000 126.800 21 35 995 26 26 134 3 5 -29.5000 127.100 TC 30 49 49 29 144
1994344S09112 1995 113 SI WA ANNETTE 1994-12-19 21:00:00 TS -30.3177 128.037 main 0 0 P_____P_____P_ SH031995 -30.4120 128.053 20 -1 -30.2234 128.020 21 35 995 26 26 134 -30.4120 128.053 TC 27 28 138
1994344S09112 1995 113 SI WA ANNETTE 1994-12-20 00:00:00 TS -31.3000 129.160 35 995 bom main 0 0 O_____O_____O_ jtwc_sh SH031995 -31.3000 129.100 20 -1 -31.3000 129.200 21 35 995 26 26 134 2 7 -31.3000 129.100 TC 25 49 49 24 133
1994344S09112 1995 113 SI WA ANNETTE 1994-12-20 03:00:00 NR -31.9669 130.094 main 44 44 ______P_______ SH031995 -1 -31.9669 130.094 21 35 995 26 26 134 TC 18 128
1994344S09112 1995 113 SI WA ANNETTE 1994-12-20 06:00:00 NR -32.4000 130.800 35 995 bom main 89 ______O_______ -1 -32.4000 130.800 21 35 995 26 26 134 3 5 49 49 15 126

IBTrACS Databaseについて

本データベースは、米国NOAAが公開する1842年以降の世界の熱帯低気圧のベストトラックデータアーカイブInternational Best Track Archive for Climate Stewardship (IBTrACS)を、ウェブで閲覧しやすい形式に変換したものです。

最終更新日:2021-11-26